Time;durP1;ratioP1;P1;durP2;ratioP2;P2;SDS_P1;SDS_P2;PMS_P1;PMS_P2;Temp;Humidity;BMP_temperature;BMP_pressure;BME280_temperature;BME280_humidity;BME280_pressure;Samples;Min_cycle;Max_cycle;Signal;HPM_P1;HPM_P2
2022/01/13 00:02:02;;;;;;;10.77;9.77;;;23.70;63.00;;;;;;6259444;28;89393;-69
2022/01/13 00:05:06;;;;;;;10.02;9.02;;;23.70;63.10;;;;;;6247453;28;88864;-70
2022/01/13 00:08:08;;;;;;;10.07;9.02;;;23.70;63.20;;;;;;6246402;27;89587;-69
2022/01/13 00:11:10;;;;;;;9.70;8.80;;;23.70;63.20;;;;;;6259866;28;88421;-69
2022/01/13 00:14:26;;;;;;;10.07;9.07;;;23.70;63.20;;;;;;6259890;28;89225;-69
2022/01/13 00:17:44;;;;;;;9.30;8.43;;;23.70;63.20;;;;;;6245209;28;89057;-69
2022/01/13 00:21:13;;;;;;;9.95;8.98;;;23.70;63.20;;;;;;6245880;28;89999;-69
2022/01/13 00:24:15;;;;;;;9.80;8.80;;;23.70;63.30;;;;;;6256215;27;89070;-69
2022/01/13 00:27:17;;;;;;;10.10;9.20;;;23.70;63.30;;;;;;6248216;28;89067;-69
2022/01/13 00:30:20;;;;;;;9.73;8.82;;;23.70;63.30;;;;;;6245468;28;88041;-70
2022/01/13 00:33:25;;;;;;;9.68;8.77;;;23.70;63.30;;;;;;6259661;28;89057;-68
2022/01/13 00:36:28;;;;;;;9.77;8.88;;;23.70;63.30;;;;;;6254006;28;89228;-69
2022/01/13 00:39:31;;;;;;;9.30;8.50;;;23.70;64.20;;;;;;6253098;28;89142;-70
2022/01/13 00:42:33;;;;;;;9.40;8.55;;;23.70;63.40;;;;;;6255301;27;88268;-68
2022/01/13 00:45:35;;;;;;;9.35;8.45;;;23.70;63.40;;;;;;6247688;28;89086;-69
2022/01/13 00:48:39;;;;;;;9.65;8.75;;;23.60;63.30;;;;;;6249796;28;89032;-69
2022/01/13 00:51:42;;;;;;;9.70;8.80;;;23.60;63.30;;;;;;6257921;28;90032;-69
2022/01/13 00:54:44;;;;;;;9.15;8.25;;;23.70;63.50;;;;;;6259563;28;89450;-69
2022/01/13 00:57:46;;;;;;;10.13;9.02;;;23.70;63.50;;;;;;6248535;28;89078;-69
2022/01/13 01:00:48;;;;;;;9.70;8.80;;;23.70;63.50;;;;;;6246461;27;87977;-69
2022/01/13 01:03:51;;;;;;;9.00;8.20;;;23.60;63.50;;;;;;6257048;27;88302;-69
2022/01/13 01:06:53;;;;;;;9.05;8.23;;;23.70;63.50;;;;;;6257508;28;89093;-69
2022/01/13 01:09:58;;;;;;;9.18;8.38;;;23.60;63.50;;;;;;6246692;28;89348;-69
2022/01/13 01:13:09;;;;;;;9.25;8.35;;;23.70;63.60;;;;;;6258105;27;87194;-69
2022/01/13 01:16:12;;;;;;;9.05;8.25;;;23.60;63.50;;;;;;6241342;28;89011;-69
2022/01/13 01:19:25;;;;;;;8.85;8.05;;;23.70;63.60;;;;;;6233204;28;89564;-69
2022/01/13 01:22:57;;;;;;;8.90;8.10;;;23.60;63.50;;;;;;6232513;28;90084;-69
2022/01/13 01:26:05;;;;;;;8.98;8.18;;;23.70;63.60;;;;;;6232661;28;89210;-69
2022/01/13 01:29:17;;;;;;;8.63;7.82;;;23.60;63.50;;;;;;6253196;28;88061;-69
2022/01/13 01:32:19;;;;;;;9.05;8.23;;;23.60;63.50;;;;;;6245585;28;89137;-69
2022/01/13 01:35:26;;;;;;;8.38;7.68;;;23.60;63.50;;;;;;6234766;28;87784;-69
2022/01/13 01:38:28;;;;;;;8.40;7.70;;;23.60;63.50;;;;;;6248019;28;89434;-69
2022/01/13 01:41:30;;;;;;;8.98;8.18;;;23.60;63.60;;;;;;6244262;28;88046;-69
2022/01/13 01:44:35;;;;;;;7.78;7.07;;;23.60;63.60;;;;;;6258163;27;88310;-68
2022/01/13 01:47:37;;;;;;;8.10;7.40;;;23.60;63.60;;;;;;6257280;27;89210;-69
2022/01/13 01:50:41;;;;;;;8.43;7.63;;;23.60;63.60;;;;;;6239767;28;89040;-69
2022/01/13 01:53:43;;;;;;;8.13;7.40;;;23.60;63.60;;;;;;6249361;27;88823;-69
2022/01/13 01:56:45;;;;;;;8.07;7.38;;;23.60;63.60;;;;;;6245394;28;89163;-69
2022/01/13 01:59:48;;;;;;;8.15;7.40;;;23.60;63.70;;;;;;6222113;28;89048;-69
2022/01/13 02:02:50;;;;;;;7.80;7.10;;;23.60;63.60;;;;;;6231472;28;89120;-69
2022/01/13 02:05:54;;;;;;;7.38;6.70;;;23.60;63.70;;;;;;6233566;28;89415;-70
2022/01/13 02:08:56;;;;;;;8.00;7.30;;;23.60;63.70;;;;;;6219098;28;89217;-69
2022/01/13 02:12:04;;;;;;;7.80;7.10;;;23.60;63.70;;;;;;6233402;28;89231;-68
2022/01/13 02:18:30;;;;;;;7.93;7.22;;;23.60;63.70;;;;;;6218462;28;87323;-69
2022/01/13 02:21:33;;;;;;;7.60;6.90;;;23.60;63.60;;;;;;6232656;28;89034;-69
2022/01/13 02:24:36;;;;;;;8.05;7.35;;;23.60;63.60;;;;;;6231878;28;90090;-70
2022/01/13 02:27:38;;;;;;;7.60;7.00;;;23.60;63.70;;;;;;6233528;28;87896;-68
2022/01/13 02:30:40;;;;;;;7.65;7.00;;;23.60;63.70;;;;;;6230509;28;88002;-69
2022/01/13 02:33:42;;;;;;;6.88;6.28;;;23.60;63.70;;;;;;6231931;28;89426;-69
2022/01/13 02:36:46;;;;;;;7.35;6.75;;;23.60;63.70;;;;;;6231475;28;87944;-69
2022/01/13 02:39:48;;;;;;;7.32;6.72;;;23.60;63.70;;;;;;6230006;28;89008;-70
2022/01/13 02:42:50;;;;;;;7.28;6.68;;;23.60;63.70;;;;;;6229056;28;89079;-69
2022/01/13 02:46:05;;;;;;;6.95;6.35;;;23.60;63.60;;;;;;6228554;28;88372;-69
2022/01/13 02:49:10;;;;;;;7.10;6.50;;;23.60;63.60;;;;;;6224351;28;89200;-69
2022/01/13 02:52:13;;;;;;;6.13;5.63;;;23.60;63.60;;;;;;6231609;28;88992;-69
2022/01/13 02:55:15;;;;;;;6.95;6.35;;;23.60;63.60;;;;;;6218186;28;90043;-69
2022/01/13 02:58:17;;;;;;;6.78;6.18;;;23.60;63.70;;;;;;6226818;28;87968;-69
2022/01/13 03:01:19;;;;;;;6.68;6.10;;;23.50;63.50;;;;;;6219542;28;89094;-69
2022/01/13 03:04:23;;;;;;;7.07;6.38;;;23.60;63.60;;;;;;6229720;28;89103;-69
2022/01/13 03:07:30;;;;;;;6.80;6.20;;;23.50;63.50;;;;;;6222924;28;88769;-69
2022/01/13 03:10:32;;;;;;;6.75;6.15;;;23.60;63.60;;;;;;6231109;28;89195;-69
2022/01/13 03:13:34;;;;;;;6.65;6.05;;;23.60;63.60;;;;;;6227230;28;87969;-69
2022/01/13 03:16:36;;;;;;;6.57;5.97;;;23.50;63.50;;;;;;6219607;28;88343;-68
2022/01/13 03:19:38;;;;;;;6.57;5.97;;;23.50;63.50;;;;;;6230623;28;89077;-69
2022/01/13 03:22:42;;;;;;;6.80;6.20;;;23.60;63.50;;;;;;6213639;28;89067;-69
2022/01/13 03:25:45;;;;;;;6.10;5.60;;;23.60;63.70;;;;;;6215841;28;90354;-69
2022/01/13 03:28:54;;;;;;;6.70;6.10;;;23.50;63.50;;;;;;6231594;28;89414;-69
2022/01/13 03:31:56;;;;;;;6.32;5.82;;;23.50;63.50;;;;;;6231612;28;87952;-70
2022/01/13 03:34:58;;;;;;;6.55;5.95;;;23.60;63.60;;;;;;6218906;28;89441;-69
2022/01/13 03:38:01;;;;;;;6.25;5.75;;;23.50;63.50;;;;;;6228675;28;89079;-70
2022/01/13 03:41:04;;;;;;;5.93;5.32;;;23.60;63.60;;;;;;6231211;28;89143;-69
2022/01/13 03:44:16;;;;;;;6.18;5.68;;;23.60;63.60;;;;;;6230392;28;89089;-70
2022/01/13 03:47:18;;;;;;;5.80;5.30;;;23.50;63.50;;;;;;6229720;28;88676;-69
2022/01/13 03:50:20;;;;;;;5.82;5.32;;;23.50;63.50;;;;;;6230362;28;89026;-69
2022/01/13 03:54:14;;;;;;;5.70;5.20;;;23.60;63.50;;;;;;6224918;28;88278;-69
2022/01/13 03:58:11;;;;;;;6.22;5.70;;;23.50;63.50;;;;;;6229634;28;89900;-68
2022/01/13 04:01:53;;;;;;;5.72;5.22;;;23.60;63.50;;;;;;6224635;28;89052;-68
2022/01/13 04:04:55;;;;;;;5.63;5.13;;;23.60;63.50;;;;;;6232171;28;89081;-69
2022/01/13 04:07:57;;;;;;;6.00;5.40;;;23.60;63.50;;;;;;6223816;28;90225;-68
2022/01/13 04:11:17;;;;;;;5.50;5.00;;;23.60;63.50;;;;;;6225242;28;88982;-69
2022/01/13 04:14:27;;;;;;;6.88;5.35;;;23.60;63.50;;;;;;6225762;28;87929;-69
2022/01/13 04:17:29;;;;;;;5.72;5.22;;;23.60;63.50;;;;;;6224562;28;89096;-69
2022/01/13 04:20:32;;;;;;;5.70;5.10;;;23.60;63.50;;;;;;6231676;28;88230;-68
2022/01/13 04:23:35;;;;;;;5.53;5.03;;;23.60;63.40;;;;;;6219016;28;89072;-69
2022/01/13 04:26:42;;;;;;;5.80;5.18;;;23.60;63.30;;;;;;6232620;28;89171;-69
2022/01/13 04:29:46;;;;;;;5.53;5.03;;;23.60;63.30;;;;;;6235005;28;90188;-69
2022/01/13 04:32:48;;;;;;;5.68;5.18;;;23.60;63.20;;;;;;6220682;28;89176;-69
2022/01/13 04:35:50;;;;;;;5.57;5.10;;;23.60;63.20;;;;;;6214823;28;89152;-69
2022/01/13 04:38:52;;;;;;;5.07;4.68;;;23.70;63.20;;;;;;6234363;28;89057;-69
2022/01/13 04:41:56;;;;;;;6.00;5.40;;;23.70;63.20;;;;;;6235188;28;89125;-69
2022/01/13 04:44:58;;;;;;;5.30;4.80;;;23.70;63.10;;;;;;6221513;28;89148;-69
2022/01/13 04:48:00;;;;;;;5.30;4.90;;;23.70;64.00;;;;;;6219037;28;89107;-69
2022/01/13 04:51:02;;;;;;;5.50;4.97;;;23.70;63.10;;;;;;6233820;28;87545;-69
2022/01/13 04:54:05;;;;;;;5.15;4.75;;;23.70;63.10;;;;;;6233357;28;88086;-68
2022/01/13 04:57:15;;;;;;;4.90;4.50;;;23.70;63.10;;;;;;6234551;28;89176;-68
2022/01/13 05:00:18;;;;;;;5.13;4.72;;;23.70;63.10;;;;;;6234700;28;88877;-69
2022/01/13 05:03:20;;;;;;;5.50;5.00;;;23.70;63.10;;;;;;6234116;28;88212;-69
2022/01/13 05:06:22;;;;;;;5.30;4.80;;;23.70;63.10;;;;;;6233339;28;88997;-69
2022/01/13 05:09:24;;;;;;;4.80;4.40;;;23.70;63.00;;;;;;6234377;28;87949;-69
2022/01/13 05:12:32;;;;;;;5.20;4.80;;;23.70;63.00;;;;;;6227646;28;89334;-69
2022/01/13 05:15:36;;;;;;;4.90;4.50;;;23.70;63.00;;;;;;6225982;28;88136;-69
2022/01/13 05:18:47;;;;;;;4.60;4.20;;;23.70;63.00;;;;;;6235786;28;89283;-69
2022/01/13 05:22:15;;;;;;;4.80;4.40;;;23.70;62.90;;;;;;6233736;28;88353;-70
2022/01/13 05:25:18;;;;;;;5.20;4.72;;;23.70;62.90;;;;;;6226511;28;89471;-70
2022/01/13 05:28:22;;;;;;;5.13;4.72;;;23.70;63.00;;;;;;6234673;28;89204;-69
2022/01/13 05:31:24;;;;;;;4.68;4.28;;;23.70;63.00;;;;;;6233177;28;90055;-69
2022/01/13 05:34:26;;;;;;;5.15;4.70;;;23.70;63.00;;;;;;6233054;28;89235;-69
2022/01/13 05:37:28;;;;;;;4.82;4.43;;;23.70;63.00;;;;;;6227980;28;88237;-69
2022/01/13 05:40:30;;;;;;;4.65;4.25;;;23.70;63.00;;;;;;6233932;28;88998;-68
2022/01/13 05:43:34;;;;;;;5.00;4.60;;;23.60;63.00;;;;;;6233226;28;88035;-69
2022/01/13 05:46:36;;;;;;;4.80;4.40;;;23.60;63.10;;;;;;6232844;28;89176;-68
2022/01/13 05:49:40;;;;;;;4.50;4.10;;;23.60;63.10;;;;;;6231913;28;88281;-69
2022/01/13 05:52:42;;;;;;;4.40;4.00;;;23.60;63.20;;;;;;6220719;28;87228;-69
2022/01/13 05:55:44;;;;;;;4.10;3.80;;;23.60;63.30;;;;;;6232354;28;89508;-69
2022/01/13 05:58:47;;;;;;;4.70;4.30;;;23.60;63.30;;;;;;6222780;28;89245;-69
2022/01/13 06:01:49;;;;;;;4.43;4.03;;;23.60;63.30;;;;;;6220011;28;90084;-69
2022/01/13 06:04:51;;;;;;;4.75;4.35;;;23.60;63.20;;;;;;6230865;28;89070;-68
2022/01/13 06:07:54;;;;;;;4.72;4.32;;;23.60;63.30;;;;;;6232141;28;89560;-69
2022/01/13 06:10:56;;;;;;;4.32;3.92;;;23.50;63.30;;;;;;6231188;28;89028;-69
2022/01/13 06:14:00;;;;;;;4.90;4.50;;;23.50;63.30;;;;;;6218828;28;89087;-69
2022/01/13 06:17:02;;;;;;;5.47;4.30;;;23.60;63.50;;;;;;6233570;28;89210;-69
2022/01/13 06:20:05;;;;;;;4.65;4.25;;;23.50;63.50;;;;;;6231940;28;89213;-69
2022/01/13 06:23:08;;;;;;;4.97;4.43;;;23.50;63.50;;;;;;6221419;28;88936;-69
2022/01/13 06:26:10;;;;;;;4.32;3.92;;;23.40;63.50;;;;;;6220850;28;89199;-69
2022/01/13 06:29:13;;;;;;;4.60;4.20;;;23.50;63.60;;;;;;6222745;28;89047;-69
2022/01/13 06:32:15;;;;;;;4.68;4.28;;;23.40;63.60;;;;;;6215042;28;90089;-70
2022/01/13 06:35:17;;;;;;;4.60;4.20;;;23.40;63.60;;;;;;6230840;28;88991;-69
2022/01/13 06:38:19;;;;;;;4.97;4.15;;;23.40;63.70;;;;;;6233498;28;89102;-69
2022/01/13 06:41:21;;;;;;;4.75;4.35;;;23.30;63.70;;;;;;6226875;28;89053;-69
2022/01/13 06:44:25;;;;;;;5.95;4.40;;;23.40;63.80;;;;;;6223562;28;88144;-69
2022/01/13 06:47:27;;;;;;;4.70;4.10;;;23.40;63.80;;;;;;6232813;28;89113;-69
2022/01/13 06:50:29;;;;;;;4.75;4.32;;;23.30;63.80;;;;;;6231696;28;87988;-69
2022/01/13 06:53:31;;;;;;;4.30;3.90;;;23.30;63.80;;;;;;6220638;28;88591;-69
2022/01/13 06:56:33;;;;;;;4.95;4.45;;;23.30;63.90;;;;;;6231857;28;89078;-69
2022/01/13 06:59:36;;;;;;;4.60;4.20;;;23.30;64.00;;;;;;6228925;28;89135;-69
2022/01/13 07:02:39;;;;;;;4.68;4.28;;;23.30;64.00;;;;;;6218842;28;90363;-70
2022/01/13 07:05:41;;;;;;;4.95;4.45;;;23.30;64.00;;;;;;6232048;28;89294;-69
2022/01/13 07:08:43;;;;;;;4.53;4.13;;;23.20;64.00;;;;;;6230360;28;89194;-69
2022/01/13 07:11:46;;;;;;;4.72;4.32;;;23.20;64.00;;;;;;6231861;28;88054;-69
2022/01/13 07:15:08;;;;;;;4.47;4.07;;;23.20;64.00;;;;;;6222213;28;89123;-69
2022/01/13 07:18:11;;;;;;;4.60;4.20;;;23.20;64.10;;;;;;6220076;28;89118;-69
2022/01/13 07:21:16;;;;;;;4.95;4.40;;;23.20;64.10;;;;;;6220086;28;89140;-69
2022/01/13 07:24:18;;;;;;;4.50;4.10;;;23.20;64.20;;;;;;6216715;28;88487;-68
2022/01/13 07:27:20;;;;;;;4.07;3.78;;;23.20;64.10;;;;;;6231372;28;89094;-69
2022/01/13 07:30:24;;;;;;;4.53;4.00;;;23.10;64.10;;;;;;6224099;28;89088;-69
2022/01/13 07:33:26;;;;;;;4.70;4.30;;;23.10;64.20;;;;;;6224860;28;90376;-69
2022/01/13 07:36:28;;;;;;;4.40;4.00;;;23.10;64.20;;;;;;6229765;28;89038;-69
2022/01/13 07:39:30;;;;;;;4.32;3.72;;;23.10;64.20;;;;;;6231635;28;89013;-69
2022/01/13 07:42:35;;;;;;;4.70;4.30;;;23.10;64.20;;;;;;6230695;28;89021;-69
2022/01/13 07:45:38;;;;;;;4.53;4.13;;;23.10;64.20;;;;;;6209320;28;89508;-68
2022/01/13 07:48:40;;;;;;;4.72;4.32;;;23.20;64.20;;;;;;6219527;28;86860;-69
2022/01/13 07:51:42;;;;;;;4.32;3.92;;;23.10;64.20;;;;;;6220272;28;89032;-69
2022/01/13 07:54:45;;;;;;;4.30;3.90;;;23.10;64.20;;;;;;6229942;28;88367;-68
2022/01/13 07:57:47;;;;;;;4.38;3.97;;;23.10;64.20;;;;;;6231880;28;88912;-69
2022/01/13 08:00:50;;;;;;;4.25;3.85;;;23.10;64.20;;;;;;6232137;28;89009;-69
2022/01/13 08:03:52;;;;;;;4.50;4.07;;;23.10;64.30;;;;;;6219873;28;90168;-69
2022/01/13 08:06:54;;;;;;;4.20;3.80;;;23.10;64.30;;;;;;6224760;28;89144;-69
2022/01/13 08:09:57;;;;;;;4.15;3.75;;;23.10;64.30;;;;;;6224075;28;89336;-69
2022/01/13 08:12:58;;;;;;;4.25;3.88;;;23.10;64.30;;;;;;6235096;28;89186;-69
2022/01/13 08:16:07;;;;;;;4.30;3.90;;;23.10;64.40;;;;;;6220710;28;88968;-69
2022/01/13 08:22:28;;;;;;;4.00;3.60;;;23.10;64.40;;;;;;6222941;28;87319;-69
2022/01/13 08:25:31;;;;;;;4.00;3.67;;;23.10;64.30;;;;;;6235447;28;88173;-69
2022/01/13 08:28:33;;;;;;;4.00;3.70;;;23.10;64.40;;;;;;6220070;28;89136;-69
2022/01/13 08:31:39;;;;;;;4.00;3.60;;;23.10;64.30;;;;;;6236524;28;89083;-70
2022/01/13 08:34:41;;;;;;;3.97;3.58;;;23.10;64.40;;;;;;6214567;28;90067;-70
2022/01/13 08:37:43;;;;;;;4.25;3.85;;;23.10;64.40;;;;;;6213485;28;89054;-70
2022/01/13 08:40:47;;;;;;;4.18;3.78;;;23.10;64.40;;;;;;6212643;28;87965;-70
2022/01/13 08:43:51;;;;;;;3.97;3.67;;;23.20;64.40;;;;;;6232686;28;89068;-69
2022/01/13 08:46:55;;;;;;;3.92;3.60;;;23.20;64.40;;;;;;6234786;28;87989;-69
2022/01/13 08:49:57;;;;;;;4.18;3.72;;;23.20;64.40;;;;;;6231309;28;89261;-68
2022/01/13 08:52:59;;;;;;;3.97;3.67;;;23.20;64.40;;;;;;6221679;28;87875;-69
2022/01/13 08:56:01;;;;;;;3.95;3.65;;;23.20;64.40;;;;;;6225265;28;88345;-68
2022/01/13 08:59:03;;;;;;;4.00;3.60;;;23.10;64.40;;;;;;6235045;28;89070;-68
2022/01/13 09:02:07;;;;;;;4.20;3.80;;;23.10;64.30;;;;;;6232435;28;90353;-69
2022/01/13 09:05:10;;;;;;;4.28;3.88;;;23.10;64.40;;;;;;6233576;28;90072;-69
2022/01/13 09:08:13;;;;;;;3.55;3.25;;;23.20;64.50;;;;;;6224688;28;88965;-69
2022/01/13 09:11:15;;;;;;;3.60;3.30;;;23.10;64.40;;;;;;6223672;28;89011;-69
2022/01/13 09:14:22;;;;;;;3.90;3.60;;;23.20;64.50;;;;;;6229249;28;89006;-69
2022/01/13 09:17:26;;;;;;;3.53;3.22;;;23.20;64.50;;;;;;6214650;28;89116;-69
2022/01/13 09:20:28;;;;;;;3.50;3.20;;;23.20;64.60;;;;;;6209629;28;89004;-69
2022/01/13 09:23:35;;;;;;;3.50;3.20;;;23.20;64.50;;;;;;6225286;28;89073;-68
2022/01/13 09:26:38;;;;;;;3.67;3.38;;;23.20;64.60;;;;;;6221035;28;88348;-69
2022/01/13 09:29:40;;;;;;;3.70;3.40;;;23.20;64.60;;;;;;6232895;28;89137;-68
2022/01/13 09:32:44;;;;;;;4.40;3.65;;;23.20;64.60;;;;;;6234978;28;89093;-69
2022/01/13 09:35:46;;;;;;;3.53;3.22;;;23.20;64.70;;;;;;6224311;28;89981;-69
2022/01/13 09:38:48;;;;;;;3.70;3.40;;;23.20;64.70;;;;;;6220330;28;89086;-69
2022/01/13 09:41:52;;;;;;;3.50;3.20;;;23.20;64.60;;;;;;6221355;28;89076;-68
2022/01/13 09:44:57;;;;;;;3.72;3.42;;;23.20;64.70;;;;;;6219588;28;89090;-69
2022/01/13 09:48:00;;;;;;;3.40;3.15;;;23.20;64.70;;;;;;6213466;28;89110;-68
2022/01/13 09:51:03;;;;;;;3.65;3.35;;;23.20;64.70;;;;;;6220739;28;89169;-69
2022/01/13 09:54:05;;;;;;;3.45;3.15;;;23.20;64.70;;;;;;6221144;28;89310;-69
2022/01/13 09:57:09;;;;;;;3.65;3.35;;;23.20;64.70;;;;;;6219947;28;88428;-69
2022/01/13 10:00:13;;;;;;;4.00;3.60;;;23.30;64.80;;;;;;6224514;28;87983;-69
2022/01/13 10:03:19;;;;;;;3.70;3.40;;;23.30;64.90;;;;;;6217911;28;89034;-69
2022/01/13 10:06:22;;;;;;;3.47;3.17;;;23.20;64.90;;;;;;6232995;28;89989;-69
2022/01/13 10:09:24;;;;;;;3.38;3.08;;;23.30;64.90;;;;;;6227743;28;89163;-69
2022/01/13 10:12:30;;;;;;;3.58;3.28;;;23.20;64.90;;;;;;6224099;28;89353;-69
2022/01/13 10:19:02;;;;;;;3.47;3.17;;;23.30;65.00;;;;;;6221745;28;87277;-70
2022/01/13 10:22:06;;;;;;;3.70;3.00;;;23.30;65.00;;;;;;6209633;28;88153;-69
2022/01/13 10:25:24;;;;;;;3.40;3.10;;;23.30;65.10;;;;;;6209393;28;89123;-69
2022/01/13 10:28:26;;;;;;;3.40;3.10;;;23.30;65.10;;;;;;6218446;28;88313;-69
2022/01/13 10:31:50;;;;;;;3.30;3.00;;;23.30;65.10;;;;;;6233694;28;89239;-68
2022/01/13 10:35:00;;;;;;;3.10;2.80;;;23.30;65.20;;;;;;6213890;28;87576;-69
2022/01/13 10:38:02;;;;;;;3.35;3.05;;;23.30;65.10;;;;;;6229627;28;90025;-69
2022/01/13 10:41:30;;;;;;;3.60;3.30;;;23.30;65.10;;;;;;6233192;28;89095;-68
2022/01/13 10:44:32;;;;;;;3.58;2.85;;;23.30;65.10;;;;;;6227226;28;89353;-70
2022/01/13 10:47:34;;;;;;;3.40;3.10;;;23.30;65.10;;;;;;6210227;28;87890;-69
2022/01/13 10:50:40;;;;;;;3.30;3.00;;;23.30;65.00;;;;;;6233477;28;89087;-70
2022/01/13 10:53:43;;;;;;;2.95;2.75;;;23.30;65.00;;;;;;6230729;28;88932;-69
2022/01/13 10:56:45;;;;;;;3.20;3.00;;;23.30;65.00;;;;;;6226676;28;89088;-69
2022/01/13 10:59:47;;;;;;;3.30;3.05;;;23.30;65.00;;;;;;6221297;28;88375;-70
2022/01/13 11:02:59;;;;;;;3.30;3.00;;;23.30;65.00;;;;;;6225384;28;89093;-68
2022/01/13 11:06:05;;;;;;;2.92;2.72;;;23.30;65.00;;;;;;6232641;28;89088;-70
2022/01/13 11:09:17;;;;;;;2.83;2.63;;;23.30;65.00;;;;;;6230994;28;90011;-70
2022/01/13 11:12:29;;;;;;;3.30;3.00;;;23.40;65.10;;;;;;6227678;28;89179;-69
2022/01/13 11:15:31;;;;;;;3.30;3.00;;;23.40;65.10;;;;;;6206334;28;88922;-70
2022/01/13 11:18:34;;;;;;;3.10;2.83;;;23.30;65.00;;;;;;6223816;28;87953;-70
2022/01/13 11:21:39;;;;;;;3.40;3.10;;;23.30;65.10;;;;;;6217444;28;89160;-69
2022/01/13 11:24:44;;;;;;;3.20;2.90;;;23.30;65.10;;;;;;6219327;28;89556;-70
2022/01/13 11:27:47;;;;;;;3.20;2.90;;;23.40;65.20;;;;;;6207154;28;88145;-69
2022/01/13 11:30:50;;;;;;;3.38;3.08;;;23.30;65.20;;;;;;6231908;28;88371;-70
2022/01/13 11:33:54;;;;;;;3.10;2.80;;;23.30;65.20;;;;;;6216720;28;89094;-70
2022/01/13 11:36:58;;;;;;;2.97;2.78;;;23.30;65.20;;;;;;6234140;28;89167;-69
2022/01/13 11:40:00;;;;;;;3.42;3.13;;;23.30;65.20;;;;;;6234228;28;90252;-69
2022/01/13 11:43:03;;;;;;;3.28;2.97;;;23.30;65.20;;;;;;6237370;28;89007;-69
2022/01/13 11:46:14;;;;;;;3.10;2.85;;;23.30;65.20;;;;;;6235315;28;88994;-69
2022/01/13 11:49:20;;;;;;;3.05;2.78;;;23.30;65.20;;;;;;6237134;28;89144;-70
2022/01/13 11:52:40;;;;;;;3.13;2.85;;;23.30;65.30;;;;;;6236451;28;89083;-69
2022/01/13 11:55:50;;;;;;;3.33;3.03;;;23.30;65.30;;;;;;6235176;28;88162;-69
2022/01/13 11:58:53;;;;;;;3.08;2.83;;;23.30;65.40;;;;;;6236357;28;89164;-70
2022/01/13 12:02:25;;;;;;;2.83;2.63;;;23.30;65.30;;;;;;6235627;28;88368;-70
2022/01/13 12:05:29;;;;;;;3.00;2.80;;;23.30;65.40;;;;;;6224937;28;89091;-69
2022/01/13 12:08:45;;;;;;;3.10;2.80;;;23.30;65.40;;;;;;6221404;28;89162;-70
2022/01/13 12:11:51;;;;;;;2.63;2.42;;;23.30;65.40;;;;;;6210120;28;89129;-70
2022/01/13 12:14:53;;;;;;;3.00;2.80;;;23.30;65.40;;;;;;6222299;28;89225;-70
2022/01/13 12:17:59;;;;;;;2.95;2.75;;;23.30;65.40;;;;;;6235707;28;89158;-70
2022/01/13 12:21:20;;;;;;;3.00;2.80;;;23.30;65.40;;;;;;6234590;28;89126;-69
2022/01/13 12:24:49;;;;;;;2.92;2.70;;;23.30;65.40;;;;;;6224413;28;89353;-70
2022/01/13 12:27:53;;;;;;;2.70;2.50;;;23.30;65.40;;;;;;6209264;28;89145;-70
2022/01/13 12:30:55;;;;;;;2.90;2.70;;;23.40;65.40;;;;;;6223464;28;89072;-70
2022/01/13 12:33:57;;;;;;;2.95;2.75;;;23.40;65.40;;;;;;6232886;28;88378;-70
2022/01/13 12:37:00;;;;;;;2.90;2.70;;;23.30;65.40;;;;;;6224884;28;89022;-71
2022/01/13 12:40:20;;;;;;;2.78;2.55;;;23.30;65.40;;;;;;6217278;28;89365;-70
2022/01/13 12:43:47;;;;;;;3.08;2.85;;;23.30;65.40;;;;;;6224155;28;90267;-69
2022/01/13 12:46:49;;;;;;;2.70;2.50;;;23.30;65.40;;;;;;6232720;28;89181;-71
2022/01/13 12:49:52;;;;;;;2.80;2.60;;;23.30;65.50;;;;;;6234980;28;88142;-71
2022/01/13 12:53:06;;;;;;;2.92;2.72;;;23.30;65.40;;;;;;6233213;28;89054;-71
2022/01/13 12:56:12;;;;;;;2.67;2.47;;;23.30;65.40;;;;;;6222829;28;89261;-70
2022/01/13 12:59:14;;;;;;;3.10;2.90;;;23.30;65.40;;;;;;6221877;28;89087;-70
2022/01/13 13:02:16;;;;;;;3.28;2.97;;;23.30;66.30;;;;;;6221260;28;89053;-70
2022/01/13 13:05:32;;;;;;;3.10;2.80;;;23.30;65.50;;;;;;6211157;28;88496;-70
2022/01/13 13:08:34;;;;;;;3.53;3.22;;;23.30;65.40;;;;;;6222697;28;89132;-70
2022/01/13 13:11:41;;;;;;;2.92;2.70;;;23.30;65.40;;;;;;6233796;28;89113;-70
2022/01/13 13:18:00;;;;;;;3.55;3.25;;;23.30;65.40;;;;;;6231133;28;88958;-70
2022/01/13 13:21:04;;;;;;;3.03;2.83;;;23.30;65.40;;;;;;6219335;28;89017;-69
2022/01/13 13:24:06;;;;;;;3.20;2.90;;;23.30;65.40;;;;;;6227449;28;89018;-70
2022/01/13 13:27:10;;;;;;;3.30;3.00;;;23.30;65.40;;;;;;6229686;28;89135;-70
2022/01/13 13:30:12;;;;;;;3.08;2.88;;;23.30;65.40;;;;;;6233802;28;89166;-70
2022/01/13 13:33:14;;;;;;;3.60;3.30;;;23.30;65.50;;;;;;6234071;28;89084;-70
2022/01/13 13:36:19;;;;;;;3.45;3.15;;;23.30;65.40;;;;;;6231389;28;87233;-70
2022/01/13 13:39:22;;;;;;;3.00;2.80;;;23.30;65.40;;;;;;6211921;28;89133;-70
2022/01/13 13:42:27;;;;;;;3.35;3.05;;;23.30;65.40;;;;;;6219640;28;89090;-70
2022/01/13 13:45:30;;;;;;;3.15;2.95;;;23.20;65.40;;;;;;6209254;28;90054;-70
2022/01/13 13:48:32;;;;;;;3.40;3.10;;;23.20;65.40;;;;;;6231381;28;88112;-70
2022/01/13 13:51:35;;;;;;;3.15;2.95;;;23.20;65.40;;;;;;6220170;28;88971;-70
2022/01/13 13:54:39;;;;;;;3.58;3.28;;;23.30;65.40;;;;;;6232942;28;89077;-71
2022/01/13 13:57:45;;;;;;;3.72;3.42;;;23.30;65.40;;;;;;6232975;28;89012;-70
2022/01/13 14:04:07;;;;;;;3.35;3.05;;;23.20;65.40;;;;;;6207730;28;87197;-70
2022/01/13 14:07:26;;;;;;;2.92;2.72;;;23.20;65.40;;;;;;6207237;28;88430;-70
2022/01/13 14:10:29;;;;;;;3.30;3.00;;;23.30;65.40;;;;;;6222696;28;89104;-68
2022/01/13 14:13:32;;;;;;;3.30;3.00;;;23.30;65.40;;;;;;6234389;28;87913;-70
2022/01/13 14:16:36;;;;;;;3.60;3.30;;;23.30;65.40;;;;;;6230954;28;89998;-70
2022/01/13 14:20:02;;;;;;;3.40;3.10;;;23.30;65.40;;;;;;6233657;28;89166;-70
2022/01/13 14:23:06;;;;;;;3.47;3.17;;;23.30;65.40;;;;;;6219468;28;89147;-70
2022/01/13 14:26:09;;;;;;;3.00;2.80;;;23.30;66.30;;;;;;6232646;28;89191;-70
2022/01/13 14:29:21;;;;;;;3.42;3.13;;;23.30;65.40;;;;;;6207226;28;89088;-70
2022/01/13 14:32:25;;;;;;;3.58;3.28;;;23.30;65.40;;;;;;6221617;28;89113;-70
2022/01/13 14:35:28;;;;;;;3.05;2.85;;;23.30;65.40;;;;;;6210125;28;89107;-70
2022/01/13 14:38:55;;;;;;;3.13;2.85;;;23.30;65.40;;;;;;6232421;28;88417;-69
2022/01/13 14:41:57;;;;;;;3.50;3.20;;;23.30;65.40;;;;;;6218619;28;88996;-70
2022/01/13 14:45:22;;;;;;;3.38;3.08;;;23.20;65.40;;;;;;6232989;28;89184;-69
2022/01/13 14:48:28;;;;;;;3.50;3.20;;;23.30;65.40;;;;;;6218211;28;89923;-70
2022/01/13 14:51:31;;;;;;;3.38;3.17;;;23.30;65.40;;;;;;6227869;28;88689;-70
2022/01/13 14:54:36;;;;;;;3.05;2.85;;;23.20;65.40;;;;;;6210047;28;89147;-69
2022/01/13 14:57:38;;;;;;;3.47;3.17;;;23.20;65.40;;;;;;6218745;28;89056;-70
2022/01/13 15:00:41;;;;;;;3.38;3.10;;;23.30;65.50;;;;;;6220974;28;89196;-70
2022/01/13 15:03:44;;;;;;;3.50;3.20;;;23.20;65.40;;;;;;6221576;28;89045;-69
2022/01/13 15:06:46;;;;;;;3.80;3.50;;;23.30;65.50;;;;;;6219907;28;89107;-71
2022/01/13 15:09:49;;;;;;;3.53;3.22;;;23.20;65.40;;;;;;6229333;28;88328;-70
2022/01/13 15:12:51;;;;;;;3.53;3.22;;;23.30;65.40;;;;;;6211174;28;89186;-70
2022/01/13 15:15:55;;;;;;;3.42;3.13;;;23.30;65.40;;;;;;6224858;28;89113;-70
2022/01/13 15:19:01;;;;;;;3.70;3.40;;;23.30;65.40;;;;;;6218275;28;90342;-70
2022/01/13 15:22:04;;;;;;;3.60;3.30;;;23.20;65.40;;;;;;6231184;28;89133;-70
2022/01/13 15:25:07;;;;;;;3.33;3.03;;;23.30;65.40;;;;;;6231208;28;87922;-70
2022/01/13 15:28:09;;;;;;;3.40;3.10;;;23.30;65.50;;;;;;6217952;28;88005;-69
2022/01/13 15:31:12;;;;;;;3.17;2.88;;;23.30;65.50;;;;;;6207806;28;87088;-70
2022/01/13 15:34:14;;;;;;;3.65;3.35;;;23.30;65.50;;;;;;6217548;28;88020;-70
2022/01/13 15:37:16;;;;;;;3.80;3.50;;;23.20;65.90;;;;;;6219018;28;89048;-70
2022/01/13 15:40:19;;;;;;;3.38;3.15;;;23.20;65.40;;;;;;6221288;28;88399;-70
2022/01/13 15:43:21;;;;;;;3.50;3.20;;;23.20;65.40;;;;;;6206985;28;89228;-70
2022/01/13 15:46:25;;;;;;;3.80;3.50;;;23.20;66.40;;;;;;6222375;28;89121;-69
2022/01/13 15:49:46;;;;;;;3.60;3.30;;;23.20;65.50;;;;;;6218074;28;89972;-70
2022/01/13 15:52:48;;;;;;;3.60;3.30;;;23.30;65.50;;;;;;6206132;28;89097;-70
2022/01/13 15:55:50;;;;;;;3.85;3.50;;;23.30;65.50;;;;;;6205204;28;88949;-70
2022/01/13 15:58:52;;;;;;;3.55;3.25;;;23.20;65.50;;;;;;6219966;28;89201;-71
2022/01/13 16:01:56;;;;;;;3.60;3.30;;;23.20;65.50;;;;;;6207041;28;88310;-70
2022/01/13 16:04:58;;;;;;;3.65;3.35;;;23.30;65.50;;;;;;6219791;28;89994;-70
2022/01/13 16:08:00;;;;;;;3.70;3.40;;;23.30;65.40;;;;;;6226104;28;89509;-70
2022/01/13 16:11:05;;;;;;;3.25;2.95;;;23.30;65.50;;;;;;6216959;28;88554;-70
2022/01/13 16:14:08;;;;;;;3.80;3.50;;;23.30;65.50;;;;;;6231126;28;88988;-70
2022/01/13 16:17:11;;;;;;;3.60;3.30;;;23.30;65.50;;;;;;6227071;28;89031;-70
2022/01/13 16:20:14;;;;;;;3.70;3.40;;;23.30;65.50;;;;;;6219920;28;90472;-70